Time;durP1;ratioP1;P1;durP2;ratioP2;P2;SDS_P1;SDS_P2;PMS_P1;PMS_P2;Temp;Humidity;BMP_temperature;BMP_pressure;BME280_temperature;BME280_humidity;BME280_pressure;Samples;Min_cycle;Max_cycle;Signal;HPM_P1;HPM_P2
2023/10/07 00:00:51;;;;;;;9.73;4.70;;;;;;;;;;5075221;28;20777;-88
2023/10/07 00:03:20;;;;;;;7.73;4.53;;;;;;;;;;5074532;28;20263;-87
2023/10/07 00:05:50;;;;;;;5.70;3.93;;;;;;;;;;5074780;28;20236;-89
2023/10/07 00:08:19;;;;;;;6.83;4.20;;;;;;;;;;5065668;28;20690;-88
2023/10/07 00:10:48;;;;;;;7.50;4.70;;;;;;;;;;5058258;28;20531;-88
2023/10/07 00:13:17;;;;;;;15.20;4.80;;;;;;;;;;5073871;28;20578;-88
2023/10/07 00:15:47;;;;;;;7.33;4.40;;;;;;;;;;5066363;28;20222;-88
2023/10/07 00:18:16;;;;;;;8.77;4.90;;;;;;;;;;5073793;28;20202;-88
2023/10/07 00:20:48;;;;;;;7.60;4.63;;;;;;;;;;5074531;28;20210;-88
2023/10/07 00:23:20;;;;;;;9.03;4.73;;;;;;;;;;5074080;28;20197;-88
2023/10/07 00:25:49;;;;;;;11.80;4.53;;;;;;;;;;5074495;28;20226;-88
2023/10/07 00:28:27;;;;;;;7.80;4.33;;;;;;;;;;5073491;28;20225;-88
2023/10/07 00:30:55;;;;;;;8.23;4.30;;;;;;;;;;5074532;28;20205;-88
2023/10/07 00:33:22;;;;;;;7.30;4.23;;;;;;;;;;5074074;28;20270;-87
2023/10/07 00:35:53;;;;;;;7.80;3.90;;;;;;;;;;5097116;22;20232;-84
2023/10/07 00:38:22;;;;;;;8.13;4.67;;;;;;;;;;5071591;28;20205;-84
2023/10/07 00:40:53;;;;;;;9.37;4.80;;;;;;;;;;5072187;28;20304;-85
2023/10/07 00:43:26;;;;;;;7.47;4.30;;;;;;;;;;5071386;28;20246;-84
2023/10/07 00:45:56;;;;;;;8.67;4.57;;;;;;;;;;5070305;28;20366;-84
2023/10/07 00:48:38;;;;;;;6.57;4.37;;;;;;;;;;5052242;28;20225;-84
2023/10/07 00:51:11;;;;;;;8.80;4.17;;;;;;;;;;5062052;28;20228;-84
2023/10/07 00:53:45;;;;;;;10.97;4.87;;;;;;;;;;5070240;28;20248;-84
2023/10/07 00:56:13;;;;;;;7.50;4.47;;;;;;;;;;5064707;28;20221;-84
2023/10/07 00:58:46;;;;;;;6.63;4.60;;;;;;;;;;5068121;28;20233;-84
2023/10/07 01:01:14;;;;;;;7.67;4.83;;;;;;;;;;5064204;28;20612;-84
2023/10/07 01:03:55;;;;;;;11.30;4.57;;;;;;;;;;5070522;28;20316;-84
2023/10/07 01:06:26;;;;;;;6.20;4.63;;;;;;;;;;5064667;28;20324;-85
2023/10/07 01:08:58;;;;;;;9.53;4.43;;;;;;;;;;5065404;28;20229;-85
2023/10/07 01:11:29;;;;;;;6.87;4.50;;;;;;;;;;5071470;28;20220;-85
2023/10/07 01:13:57;;;;;;;6.10;4.27;;;;;;;;;;5070300;28;20789;-85
2023/10/07 01:16:32;;;;;;;7.90;4.70;;;;;;;;;;5065340;28;20226;-85
2023/10/07 01:19:09;;;;;;;6.40;4.87;;;;;;;;;;5068420;28;20353;-85
2023/10/07 01:21:50;;;;;;;7.73;4.93;;;;;;;;;;5071600;28;20213;-85
2023/10/07 01:24:25;;;;;;;9.50;4.43;;;;;;;;;;5064404;28;20265;-85
2023/10/07 01:26:53;;;;;;;11.20;4.67;;;;;;;;;;5069085;28;20274;-85
2023/10/07 01:29:21;;;;;;;7.13;4.47;;;;;;;;;;5063964;28;20229;-85
2023/10/07 01:32:00;;;;;;;9.10;5.07;;;;;;;;;;5063022;28;20262;-85
2023/10/07 01:34:29;;;;;;;6.17;4.00;;;;;;;;;;5069425;28;20236;-84
2023/10/07 01:36:57;;;;;;;7.97;4.73;;;;;;;;;;5061448;28;20237;-85
2023/10/07 01:39:25;;;;;;;6.40;4.30;;;;;;;;;;5064780;28;20280;-84
2023/10/07 01:41:52;;;;;;;8.50;4.07;;;;;;;;;;5068750;28;20241;-84
2023/10/07 01:44:24;;;;;;;7.83;4.30;;;;;;;;;;5065706;28;20233;-84
2023/10/07 01:46:56;;;;;;;7.40;4.23;;;;;;;;;;5057659;28;20233;-84
2023/10/07 01:49:23;;;;;;;10.30;4.50;;;;;;;;;;5062359;28;20244;-85
2023/10/07 01:51:52;;;;;;;8.37;4.37;;;;;;;;;;5064647;28;20260;-84
2023/10/07 01:54:20;;;;;;;7.27;4.43;;;;;;;;;;5057813;28;20237;-84
2023/10/07 01:56:52;;;;;;;9.53;4.60;;;;;;;;;;5052406;28;20238;-84
2023/10/07 01:59:19;;;;;;;10.27;4.60;;;;;;;;;;5056842;28;20234;-85
2023/10/07 02:01:53;;;;;;;10.43;4.97;;;;;;;;;;5060083;28;20217;-85
2023/10/07 02:04:26;;;;;;;7.33;4.37;;;;;;;;;;5061458;28;20866;-85
2023/10/07 02:06:54;;;;;;;11.03;4.90;;;;;;;;;;5051050;28;20312;-85
2023/10/07 02:09:24;;;;;;;8.73;4.67;;;;;;;;;;5059294;28;20254;-85
2023/10/07 02:11:54;;;;;;;5.87;4.57;;;;;;;;;;5056721;28;20238;-85
2023/10/07 02:14:24;;;;;;;10.30;4.50;;;;;;;;;;5071023;28;20274;-85
2023/10/07 02:16:52;;;;;;;10.67;4.90;;;;;;;;;;5062085;28;20298;-85
2023/10/07 02:19:28;;;;;;;8.33;4.90;;;;;;;;;;5058931;28;20230;-84
2023/10/07 02:21:59;;;;;;;9.07;4.80;;;;;;;;;;5061132;28;20296;-85
2023/10/07 02:24:29;;;;;;;9.50;5.40;;;;;;;;;;5067799;28;20261;-84
2023/10/07 02:26:59;;;;;;;10.50;4.30;;;;;;;;;;5060387;28;20299;-85
2023/10/07 02:29:27;;;;;;;6.10;4.40;;;;;;;;;;5068545;28;20244;-85
2023/10/07 02:32:05;;;;;;;8.70;4.63;;;;;;;;;;5058485;28;20210;-85
2023/10/07 02:34:33;;;;;;;9.33;4.63;;;;;;;;;;5056585;28;20730;-85
2023/10/07 02:37:13;;;;;;;7.77;5.17;;;;;;;;;;5058364;28;20229;-85
2023/10/07 02:39:54;;;;;;;8.90;4.73;;;;;;;;;;5060781;28;20316;-85
2023/10/07 02:42:24;;;;;;;12.43;5.17;;;;;;;;;;5065559;28;20221;-85
2023/10/07 02:44:54;;;;;;;8.63;4.70;;;;;;;;;;5070624;28;20331;-85
2023/10/07 02:47:21;;;;;;;6.77;4.80;;;;;;;;;;5061292;28;20230;-85
2023/10/07 02:49:50;;;;;;;7.93;5.10;;;;;;;;;;5064400;28;20613;-85
2023/10/07 02:52:19;;;;;;;8.70;4.83;;;;;;;;;;5065845;28;20210;-85
2023/10/07 02:55:11;;;;;;;11.67;4.70;;;;;;;;;;5069425;28;20233;-85
2023/10/07 02:57:39;;;;;;;7.03;4.70;;;;;;;;;;5059960;28;20297;-85
2023/10/07 03:00:16;;;;;;;12.07;5.27;;;;;;;;;;5056373;28;20236;-85
2023/10/07 03:02:50;;;;;;;6.87;3.90;;;;;;;;;;5064135;28;20205;-85
2023/10/07 03:05:27;;;;;;;6.90;4.73;;;;;;;;;;5066287;28;20773;-85
2023/10/07 03:08:02;;;;;;;7.53;4.40;;;;;;;;;;5072997;28;20207;-85
2023/10/07 03:10:37;;;;;;;9.33;4.70;;;;;;;;;;5072047;28;20597;-85
2023/10/07 03:13:06;;;;;;;9.23;4.43;;;;;;;;;;5073782;28;20204;-85
2023/10/07 03:15:46;;;;;;;7.93;5.07;;;;;;;;;;5067150;28;20238;-85
2023/10/07 03:18:23;;;;;;;10.77;4.57;;;;;;;;;;5065175;28;20220;-85
2023/10/07 03:21:00;;;;;;;9.87;4.43;;;;;;;;;;5065546;28;20266;-85
2023/10/07 03:23:32;;;;;;;9.40;4.47;;;;;;;;;;5067988;28;20237;-85
2023/10/07 03:26:12;;;;;;;9.87;4.93;;;;;;;;;;5071868;28;20264;-85
2023/10/07 03:28:51;;;;;;;8.33;4.83;;;;;;;;;;5073064;28;20256;-85
2023/10/07 03:31:19;;;;;;;8.40;5.03;;;;;;;;;;5062120;28;20213;-85
2023/10/07 03:33:49;;;;;;;7.33;4.33;;;;;;;;;;5061321;28;20650;-85
2023/10/07 03:36:41;;;;;;;7.17;4.57;;;;;;;;;;5065442;28;20229;-84
2023/10/07 03:41:55;;;;;;;8.03;4.50;;;;;;;;;;5055884;28;20299;-85
2023/10/07 03:44:25;;;;;;;7.17;4.20;;;;;;;;;;5062613;28;20658;-84
2023/10/07 03:46:55;;;;;;;6.37;4.10;;;;;;;;;;5066527;28;20221;-84
2023/10/07 03:49:23;;;;;;;7.80;4.73;;;;;;;;;;5068264;28;20256;-85
2023/10/07 03:51:59;;;;;;;9.90;4.57;;;;;;;;;;5061381;28;20210;-85
2023/10/07 03:54:29;;;;;;;9.10;4.27;;;;;;;;;;5060373;28;20226;-84
2023/10/07 03:56:56;;;;;;;8.63;4.67;;;;;;;;;;5062457;28;20595;-85
2023/10/07 03:59:27;;;;;;;7.33;4.80;;;;;;;;;;5061306;28;20221;-85
2023/10/07 04:01:54;;;;;;;4.23;3.70;;;;;;;;;;5065486;28;20312;-85
2023/10/07 04:04:23;;;;;;;7.07;4.43;;;;;;;;;;5058268;28;20221;-85
2023/10/07 04:06:50;;;;;;;11.87;4.90;;;;;;;;;;5068198;28;20226;-85
2023/10/07 04:09:18;;;;;;;7.80;4.63;;;;;;;;;;5059453;28;20602;-85
2023/10/07 04:11:49;;;;;;;8.00;5.70;;;;;;;;;;5065533;28;20297;-85
2023/10/07 04:14:27;;;;;;;8.93;4.57;;;;;;;;;;5060291;28;20691;-85
2023/10/07 04:16:59;;;;;;;8.93;4.93;;;;;;;;;;5067292;28;20225;-85
2023/10/07 04:19:38;;;;;;;6.43;4.40;;;;;;;;;;5069344;28;20304;-85
2023/10/07 04:22:07;;;;;;;7.57;4.33;;;;;;;;;;5071460;28;20201;-85
2023/10/07 04:24:38;;;;;;;7.43;4.40;;;;;;;;;;5062990;28;20249;-85
2023/10/07 04:27:06;;;;;;;7.10;4.13;;;;;;;;;;5071830;28;20244;-85
2023/10/07 04:29:34;;;;;;;8.33;4.37;;;;;;;;;;5071071;28;20236;-85
2023/10/07 04:32:12;;;;;;;6.13;4.33;;;;;;;;;;5061354;28;20213;-85
2023/10/07 04:35:00;;;;;;;8.67;4.50;;;;;;;;;;5066682;28;20717;-85
2023/10/07 04:37:38;;;;;;;6.87;4.73;;;;;;;;;;5060427;28;20233;-85
2023/10/07 04:43:25;;;;;;;6.53;4.90;;;;;;;;;;5067064;28;20243;-85
2023/10/07 04:45:49;;;;;;;11.07;6.03;;;;;;;;;;5057287;28;20776;-85
2023/10/07 04:48:40;;;;;;;9.17;6.13;;;;;;;;;;5067471;28;20208;-84
2023/10/07 04:51:12;;;;;;;7.50;4.90;;;;;;;;;;5060712;28;20233;-85
2023/10/07 04:53:39;;;;;;;6.80;4.30;;;;;;;;;;5056055;28;20233;-84
2023/10/07 04:56:06;;;;;;;8.47;4.37;;;;;;;;;;5064778;28;20255;-84
2023/10/07 04:58:33;;;;;;;8.20;4.37;;;;;;;;;;5068000;28;20228;-84
2023/10/07 05:01:22;;;;;;;6.50;3.90;;;;;;;;;;5062268;28;20635;-83
2023/10/07 05:03:55;;;;;;;6.03;4.03;;;;;;;;;;5070639;28;20308;-83
2023/10/07 05:06:21;;;;;;;8.40;5.03;;;;;;;;;;5062942;28;20646;-83
2023/10/07 05:08:48;;;;;;;7.37;4.70;;;;;;;;;;5063896;28;20224;-84
2023/10/07 05:11:17;;;;;;;9.97;4.40;;;;;;;;;;5062265;28;20282;-84
2023/10/07 05:13:46;;;;;;;6.93;4.43;;;;;;;;;;5070276;28;20312;-84
2023/10/07 05:16:12;;;;;;;7.83;4.77;;;;;;;;;;5059957;28;20233;-84
2023/10/07 05:18:39;;;;;;;7.90;4.93;;;;;;;;;;5064509;28;20302;-84
2023/10/07 05:21:07;;;;;;;6.03;4.03;;;;;;;;;;5062427;28;20202;-84
2023/10/07 05:23:34;;;;;;;6.80;4.83;;;;;;;;;;5061892;28;20243;-84
2023/10/07 05:26:03;;;;;;;10.97;5.13;;;;;;;;;;5061475;28;20275;-84
2023/10/07 05:28:32;;;;;;;7.03;5.40;;;;;;;;;;5063228;28;20233;-84
2023/10/07 05:31:02;;;;;;;10.67;5.57;;;;;;;;;;5053961;28;20245;-83
2023/10/07 05:33:32;;;;;;;8.70;4.87;;;;;;;;;;5061759;28;20671;-84
2023/10/07 05:36:00;;;;;;;8.77;4.93;;;;;;;;;;5061553;28;20233;-84
2023/10/07 05:38:28;;;;;;;8.50;4.77;;;;;;;;;;5054238;28;20208;-84
2023/10/07 05:41:00;;;;;;;8.53;4.60;;;;;;;;;;5062890;28;20546;-84
2023/10/07 05:43:27;;;;;;;8.80;5.43;;;;;;;;;;5063707;28;20544;-84
2023/10/07 05:45:54;;;;;;;10.00;4.87;;;;;;;;;;5055059;28;20233;-83
2023/10/07 05:48:22;;;;;;;9.07;4.97;;;;;;;;;;5062350;28;20205;-84
2023/10/07 05:50:49;;;;;;;7.27;4.70;;;;;;;;;;5063177;28;20225;-85
2023/10/07 05:53:16;;;;;;;9.60;4.73;;;;;;;;;;5068683;28;20292;-85
2023/10/07 05:55:46;;;;;;;10.53;4.83;;;;;;;;;;5056695;28;20226;-84
2023/10/07 05:58:14;;;;;;;8.73;4.53;;;;;;;;;;5061719;28;20213;-85
2023/10/07 06:00:41;;;;;;;11.20;4.93;;;;;;;;;;5053529;28;20202;-85
2023/10/07 06:03:11;;;;;;;7.63;5.03;;;;;;;;;;5067526;28;20216;-85
2023/10/07 06:05:39;;;;;;;8.40;4.40;;;;;;;;;;5065984;28;20229;-82
2023/10/07 06:08:10;;;;;;;6.17;4.13;;;;;;;;;;5067660;28;20228;-81
2023/10/07 06:10:38;;;;;;;8.60;5.03;;;;;;;;;;5062724;28;20299;-81
2023/10/07 06:13:09;;;;;;;6.97;4.67;;;;;;;;;;5061435;28;20206;-82
2023/10/07 06:15:37;;;;;;;8.73;4.67;;;;;;;;;;5069283;28;20796;-82
2023/10/07 06:18:05;;;;;;;10.70;4.93;;;;;;;;;;5071458;28;20205;-82
2023/10/07 06:20:37;;;;;;;7.53;5.33;;;;;;;;;;5062684;28;20252;-81
2023/10/07 06:23:13;;;;;;;11.57;6.10;;;;;;;;;;5073634;28;20213;-82
2023/10/07 06:25:41;;;;;;;7.17;5.40;;;;;;;;;;5068179;28;20767;-80
2023/10/07 06:28:17;;;;;;;11.23;5.33;;;;;;;;;;5067341;28;20209;-81
2023/10/07 06:30:45;;;;;;;10.93;5.67;;;;;;;;;;5068487;28;20240;-79
2023/10/07 06:33:13;;;;;;;17.03;6.10;;;;;;;;;;5056993;28;20699;-79
2023/10/07 06:35:41;;;;;;;9.40;5.37;;;;;;;;;;5062555;28;20301;-85
2023/10/07 06:38:09;;;;;;;10.43;6.37;;;;;;;;;;5070732;28;20710;-85
2023/10/07 06:40:36;;;;;;;12.23;6.27;;;;;;;;;;5059021;28;20249;-84
2023/10/07 06:43:04;;;;;;;10.83;5.77;;;;;;;;;;5065706;28;20689;-84
2023/10/07 06:45:35;;;;;;;11.37;6.47;;;;;;;;;;5073763;28;20229;-85
2023/10/07 06:48:05;;;;;;;9.77;6.53;;;;;;;;;;5065742;28;20202;-85
2023/10/07 06:50:32;;;;;;;11.93;6.00;;;;;;;;;;5066241;28;20232;-85
2023/10/07 06:53:00;;;;;;;10.20;6.33;;;;;;;;;;5065853;28;20212;-85
2023/10/07 06:55:35;;;;;;;13.23;6.33;;;;;;;;;;5069955;28;20233;-85
2023/10/07 06:58:04;;;;;;;11.33;5.90;;;;;;;;;;5066385;28;20282;-85
2023/10/07 07:00:47;;;;;;;11.70;5.57;;;;;;;;;;5057547;28;20276;-85
2023/10/07 07:03:14;;;;;;;12.37;6.03;;;;;;;;;;5066582;28;20241;-85
2023/10/07 07:05:41;;;;;;;12.13;6.10;;;;;;;;;;5053849;28;20226;-85
2023/10/07 07:08:10;;;;;;;10.10;6.00;;;;;;;;;;5063006;28;20197;-85
2023/10/07 07:10:38;;;;;;;11.03;6.10;;;;;;;;;;5060012;28;20244;-85
2023/10/07 07:13:12;;;;;;;10.17;6.23;;;;;;;;;;5053597;28;20668;-85
2023/10/07 07:15:43;;;;;;;10.07;7.03;;;;;;;;;;5068501;28;20221;-85
2023/10/07 07:18:16;;;;;;;9.47;6.10;;;;;;;;;;5062804;28;20573;-84
2023/10/07 07:23:35;;;;;;;14.77;6.90;;;;;;;;;;5064312;28;20201;-85
2023/10/07 07:26:06;;;;;;;9.13;5.50;;;;;;;;;;5071127;28;20240;-85
2023/10/07 07:28:34;;;;;;;11.27;5.50;;;;;;;;;;5072456;28;20236;-85
2023/10/07 07:31:10;;;;;;;11.57;5.83;;;;;;;;;;5073847;28;20239;-85
2023/10/07 07:33:37;;;;;;;9.10;5.87;;;;;;;;;;5053175;28;20236;-84
2023/10/07 07:36:09;;;;;;;8.40;6.03;;;;;;;;;;5058824;28;20236;-85
2023/10/07 07:38:44;;;;;;;7.97;5.60;;;;;;;;;;5057606;28;20264;-85
2023/10/07 07:41:26;;;;;;;9.83;6.03;;;;;;;;;;5072293;28;20234;-85
2023/10/07 07:43:58;;;;;;;9.53;5.83;;;;;;;;;;5061224;28;20235;-85
2023/10/07 07:46:28;;;;;;;7.27;5.37;;;;;;;;;;5061474;28;20222;-85
2023/10/07 07:48:56;;;;;;;11.37;6.00;;;;;;;;;;5060158;28;20249;-85
2023/10/07 07:51:25;;;;;;;9.87;5.17;;;;;;;;;;5072970;28;21270;-85
2023/10/07 07:53:52;;;;;;;7.47;5.10;;;;;;;;;;5072774;28;20229;-84
2023/10/07 07:56:20;;;;;;;8.73;5.70;;;;;;;;;;5064629;28;20249;-85
2023/10/07 07:58:48;;;;;;;9.33;4.87;;;;;;;;;;5058060;28;20700;-86
2023/10/07 08:01:22;;;;;;;7.43;4.97;;;;;;;;;;5058443;28;20210;-86
2023/10/07 08:03:50;;;;;;;5.50;4.50;;;;;;;;;;5058492;28;20233;-87
2023/10/07 08:06:20;;;;;;;8.67;4.83;;;;;;;;;;5070953;28;20233;-87
2023/10/07 08:08:49;;;;;;;7.27;4.60;;;;;;;;;;5066492;28;20226;-85
2023/10/07 08:11:17;;;;;;;10.07;5.17;;;;;;;;;;5070814;28;20233;-85
2023/10/07 08:13:45;;;;;;;8.67;4.20;;;;;;;;;;5072104;28;20713;-84
2023/10/07 08:16:16;;;;;;;9.60;4.57;;;;;;;;;;5058620;28;20237;-84
2023/10/07 08:18:44;;;;;;;6.87;5.07;;;;;;;;;;5060963;28;20228;-85
2023/10/07 08:21:14;;;;;;;9.83;5.27;;;;;;;;;;5060045;28;20213;-84
2023/10/07 08:23:43;;;;;;;10.00;5.20;;;;;;;;;;5052331;28;20230;-85
2023/10/07 08:26:11;;;;;;;9.63;5.10;;;;;;;;;;5058240;28;20386;-85
2023/10/07 08:28:46;;;;;;;6.57;4.77;;;;;;;;;;5056617;28;20233;-86
2023/10/07 08:31:19;;;;;;;9.50;5.67;;;;;;;;;;5063192;28;20225;-85
2023/10/07 08:33:54;;;;;;;6.73;4.93;;;;;;;;;;5057145;28;20316;-86
2023/10/07 08:36:29;;;;;;;9.13;5.00;;;;;;;;;;5068060;28;20236;-86
2023/10/07 08:38:58;;;;;;;8.20;4.90;;;;;;;;;;5065959;28;20259;-85
2023/10/07 08:41:28;;;;;;;9.67;4.70;;;;;;;;;;5069615;28;20555;-85
2023/10/07 08:44:05;;;;;;;8.17;5.30;;;;;;;;;;5063734;28;20707;-86
2023/10/07 08:46:39;;;;;;;10.60;4.77;;;;;;;;;;5060093;28;20293;-85
2023/10/07 08:49:12;;;;;;;7.13;4.57;;;;;;;;;;5059926;28;20261;-87
2023/10/07 08:51:41;;;;;;;6.80;4.97;;;;;;;;;;5065213;28;20221;-86
2023/10/07 08:54:11;;;;;;;9.57;4.70;;;;;;;;;;5066552;28;20229;-84
2023/10/07 08:56:40;;;;;;;9.83;4.33;;;;;;;;;;5064627;28;20316;-84
2023/10/07 08:59:12;;;;;;;8.67;4.00;;;;;;;;;;5063548;28;20252;-86
2023/10/07 09:01:43;;;;;;;7.77;4.83;;;;;;;;;;5064653;28;20214;-86
2023/10/07 09:04:10;;;;;;;6.30;3.77;;;;;;;;;;5062666;28;20317;-85
2023/10/07 09:06:45;;;;;;;6.23;3.87;;;;;;;;;;5060056;28;20225;-84
2023/10/07 09:09:14;;;;;;;10.70;4.73;;;;;;;;;;5067642;28;20651;-84
2023/10/07 09:11:41;;;;;;;8.50;4.30;;;;;;;;;;5064609;28;20570;-85
2023/10/07 09:14:10;;;;;;;9.93;4.57;;;;;;;;;;5071407;28;20633;-84
2023/10/07 09:16:40;;;;;;;6.83;3.63;;;;;;;;;;5056020;28;20760;-85
2023/10/07 09:19:13;;;;;;;9.93;4.40;;;;;;;;;;5062521;28;20222;-85
2023/10/07 09:21:45;;;;;;;7.33;4.27;;;;;;;;;;5055618;28;20202;-85
2023/10/07 09:24:24;;;;;;;5.80;3.87;;;;;;;;;;5062297;28;20787;-86
2023/10/07 09:26:56;;;;;;;6.80;4.13;;;;;;;;;;5071118;28;20706;-85
2023/10/07 09:29:27;;;;;;;4.17;3.30;;;;;;;;;;5070606;28;20241;-85
2023/10/07 09:31:57;;;;;;;13.23;4.00;;;;;;;;;;5065038;28;20226;-85
2023/10/07 09:34:32;;;;;;;9.80;3.40;;;;;;;;;;5068990;28;20229;-85
2023/10/07 09:37:08;;;;;;;6.77;3.77;;;;;;;;;;5060213;28;20236;-85
2023/10/07 09:39:43;;;;;;;5.30;3.50;;;;;;;;;;5059428;28;20279;-85
2023/10/07 09:42:26;;;;;;;6.30;3.83;;;;;;;;;;5052884;28;20293;-85
2023/10/07 09:44:55;;;;;;;7.40;3.43;;;;;;;;;;5062231;28;20680;-85
2023/10/07 09:47:22;;;;;;;9.73;3.63;;;;;;;;;;5070361;28;20293;-85
2023/10/07 09:49:50;;;;;;;4.30;3.27;;;;;;;;;;5056853;28;20221;-84
2023/10/07 09:52:18;;;;;;;4.60;3.30;;;;;;;;;;5067525;28;20286;-85
2023/10/07 09:54:55;;;;;;;4.87;2.93;;;;;;;;;;5063765;28;20233;-84
2023/10/07 09:57:29;;;;;;;4.03;3.20;;;;;;;;;;5062246;28;20229;-84
2023/10/07 10:00:37;;;;;;;6.23;3.10;;;;;;;;;;5070461;28;20795;-85
2023/10/07 10:03:04;;;;;;;3.57;2.93;;;;;;;;;;5058933;28;20675;-85
2023/10/07 10:05:40;;;;;;;8.27;3.27;;;;;;;;;;5069314;28;20233;-85
2023/10/07 10:08:28;;;;;;;7.33;3.10;;;;;;;;;;5062895;28;20293;-85
2023/10/07 10:10:59;;;;;;;4.90;3.20;;;;;;;;;;5051089;28;20253;-86
2023/10/07 10:13:51;;;;;;;5.60;3.20;;;;;;;;;;5060212;28;20229;-85
2023/10/07 10:16:18;;;;;;;7.43;3.10;;;;;;;;;;5053578;28;20308;-84
2023/10/07 10:18:50;;;;;;;8.30;3.10;;;;;;;;;;5065400;28;20226;-84
2023/10/07 10:21:22;;;;;;;4.73;3.23;;;;;;;;;;5058295;28;20205;-85
2023/10/07 10:23:51;;;;;;;5.37;3.20;;;;;;;;;;5058589;28;20222;-85
2023/10/07 10:26:22;;;;;;;5.00;2.90;;;;;;;;;;5059156;28;20291;-84
2023/10/07 10:28:59;;;;;;;3.80;2.93;;;;;;;;;;5064955;28;20225;-85
2023/10/07 10:31:32;;;;;;;4.83;3.33;;;;;;;;;;5066133;28;20253;-85
2023/10/07 10:33:59;;;;;;;4.43;3.20;;;;;;;;;;5061829;28;20232;-85
2023/10/07 10:36:26;;;;;;;5.33;3.07;;;;;;;;;;5059788;28;20244;-85
2023/10/07 10:38:53;;;;;;;4.33;3.13;;;;;;;;;;5049828;28;20236;-85
2023/10/07 10:41:32;;;;;;;5.83;2.70;;;;;;;;;;5063553;28;20201;-85
2023/10/07 10:44:06;;;;;;;4.60;2.60;;;;;;;;;;5049902;28;20225;-85
2023/10/07 10:46:44;;;;;;;3.80;2.90;;;;;;;;;;5067179;28;20237;-83
2023/10/07 10:49:13;;;;;;;8.67;3.17;;;;;;;;;;5059788;28;20703;-86
2023/10/07 10:51:47;;;;;;;5.60;3.00;;;;;;;;;;5058045;28;20226;-87
2023/10/07 10:54:15;;;;;;;5.00;3.20;;;;;;;;;;5053183;28;20603;-85
2023/10/07 10:56:48;;;;;;;4.30;2.97;;;;;;;;;;5066021;28;20256;-86
2023/10/07 10:59:15;;;;;;;4.75;3.20;;;;;;;;;;5072635;28;20316;-85
2023/10/07 11:01:44;;;;;;;5.43;3.50;;;;;;;;;;5057602;28;20228;-84
2023/10/07 11:04:13;;;;;;;4.53;2.93;;;;;;;;;;5073107;28;20259;-84
2023/10/07 11:06:40;;;;;;;6.65;3.10;;;;;;;;;;5057934;28;20703;-85
2023/10/07 11:09:09;;;;;;;5.30;3.28;;;;;;;;;;5072843;28;20225;-84
2023/10/07 11:11:37;;;;;;;14.15;9.00;;;;;;;;;;5056625;28;20225;-85
2023/10/07 11:14:09;;;;;;;5.93;3.20;;;;;;;;;;5066317;28;20231;-85
2023/10/07 11:16:45;;;;;;;5.50;2.75;;;;;;;;;;5064486;28;20222;-84
2023/10/07 11:19:12;;;;;;;4.32;2.63;;;;;;;;;;5064488;28;20712;-85
2023/10/07 11:21:44;;;;;;;3.70;2.47;;;;;;;;;;5066311;28;20206;-84
2023/10/07 11:24:14;;;;;;;5.63;2.95;;;;;;;;;;5072956;28;20236;-84
2023/10/07 11:26:42;;;;;;;4.35;2.80;;;;;;;;;;5057802;28;20714;-87
2023/10/07 11:29:14;;;;;;;4.90;3.13;;;;;;;;;;5070175;28;20225;-86
2023/10/07 11:31:42;;;;;;;5.47;3.00;;;;;;;;;;5065119;28;20221;-87
2023/10/07 11:34:10;;;;;;;5.60;3.28;;;;;;;;;;5067882;28;20259;-86
2023/10/07 11:36:44;;;;;;;5.05;3.00;;;;;;;;;;5063569;28;20259;-87
2023/10/07 11:39:13;;;;;;;3.80;3.05;;;;;;;;;;5061633;28;20232;-88
2023/10/07 11:41:41;;;;;;;5.45;2.83;;;;;;;;;;5061277;28;20268;-88
2023/10/07 11:44:10;;;;;;;7.85;3.13;;;;;;;;;;5059830;28;20244;-88
2023/10/07 11:46:41;;;;;;;6.40;3.00;;;;;;;;;;5054678;28;20267;-86
2023/10/07 11:49:08;;;;;;;4.68;2.80;;;;;;;;;;5063627;28;20279;-85
2023/10/07 11:51:35;;;;;;;5.63;3.20;;;;;;;;;;5057066;28;20272;-80
2023/10/07 11:54:02;;;;;;;3.83;2.92;;;;;;;;;;5066498;28;20227;-85
2023/10/07 11:56:29;;;;;;;4.10;3.10;;;;;;;;;;5057087;28;20237;-83
2023/10/07 11:58:56;;;;;;;5.00;3.00;;;;;;;;;;5061323;28;20232;-84
2023/10/07 12:01:24;;;;;;;4.85;3.00;;;;;;;;;;5061512;28;20205;-85
2023/10/07 12:03:53;;;;;;;4.32;3.00;;;;;;;;;;5063204;28;20229;-85
2023/10/07 12:06:20;;;;;;;6.03;3.50;;;;;;;;;;5069758;28;20236;-86
2023/10/07 12:08:47;;;;;;;5.55;3.00;;;;;;;;;;5064874;28;20237;-86
2023/10/07 12:11:18;;;;;;;5.18;3.65;;;;;;;;;;5052420;28;20241;-86
2023/10/07 12:13:46;;;;;;;5.70;2.67;;;;;;;;;;5051859;28;20253;-86
2023/10/07 12:16:13;;;;;;;5.70;2.95;;;;;;;;;;5059113;28;20237;-85
2023/10/07 12:18:40;;;;;;;4.53;3.13;;;;;;;;;;5053899;28;20252;-85
2023/10/07 12:21:12;;;;;;;6.18;2.88;;;;;;;;;;5065182;28;20202;-86
2023/10/07 12:23:41;;;;;;;5.60;3.00;;;;;;;;;;5056123;28;20283;-87
2023/10/07 12:26:12;;;;;;;5.63;3.33;;;;;;;;;;5067686;28;20231;-86
2023/10/07 12:28:39;;;;;;;4.55;3.28;;;;;;;;;;5052410;28;20283;-85
2023/10/07 12:31:11;;;;;;;5.03;3.10;;;;;;;;;;5059349;28;20791;-86
2023/10/07 12:33:39;;;;;;;5.75;3.25;;;;;;;;;;5068954;28;20749;-86
2023/10/07 12:36:14;;;;;;;5.95;3.13;;;;;;;;;;5074693;22;20218;-82
2023/10/07 12:38:41;;;;;;;4.95;3.13;;;;;;;;;;5051208;28;20229;-82
2023/10/07 12:41:08;;;;;;;4.15;2.88;;;;;;;;;;5052735;28;20608;-81
2023/10/07 12:43:36;;;;;;;3.70;3.05;;;;;;;;;;5046465;28;20233;-82
2023/10/07 12:46:03;;;;;;;4.72;3.20;;;;;;;;;;5037972;28;20553;-81
2023/10/07 12:48:30;;;;;;;5.43;3.60;;;;;;;;;;5036909;28;20238;-82
2023/10/07 12:50:59;;;;;;;3.85;2.67;;;;;;;;;;5038830;28;20680;-82
2023/10/07 12:53:27;;;;;;;6.20;3.55;;;;;;;;;;5040237;28;20714;-83
2023/10/07 12:55:54;;;;;;;4.22;2.58;;;;;;;;;;5052146;28;20210;-81
2023/10/07 12:58:26;;;;;;;5.18;3.35;;;;;;;;;;5051236;28;20206;-81
2023/10/07 13:00:52;;;;;;;4.22;2.88;;;;;;;;;;5052028;28;20297;-83
2023/10/07 13:03:19;;;;;;;3.25;2.45;;;;;;;;;;5051753;28;20213;-84
2023/10/07 13:05:47;;;;;;;4.57;2.80;;;;;;;;;;5044022;28;20210;-84
2023/10/07 13:08:15;;;;;;;4.55;2.75;;;;;;;;;;5050982;28;20210;-84
2023/10/07 13:10:44;;;;;;;6.85;2.80;;;;;;;;;;5050880;28;20222;-85
2023/10/07 13:13:13;;;;;;;4.47;2.80;;;;;;;;;;5050924;28;20222;-85
2023/10/07 13:15:42;;;;;;;4.88;2.70;;;;;;;;;;5051443;28;20271;-85
2023/10/07 13:18:09;;;;;;;5.75;2.88;;;;;;;;;;5051718;28;20230;-84
2023/10/07 13:20:38;;;;;;;3.72;2.63;;;;;;;;;;5051032;28;20225;-84
2023/10/07 13:23:06;;;;;;;5.75;2.80;;;;;;;;;;5051764;28;20206;-85
2023/10/07 13:25:34;;;;;;;4.70;2.92;;;;;;;;;;5050729;28;20237;-85
2023/10/07 13:28:03;;;;;;;3.25;2.58;;;;;;;;;;5051891;28;20303;-83
2023/10/07 13:30:30;;;;;;;3.90;2.75;;;;;;;;;;5049880;28;20598;-83
2023/10/07 13:32:58;;;;;;;3.55;2.72;;;;;;;;;;5044380;28;20309;-83
2023/10/07 13:35:27;;;;;;;5.20;2.80;;;;;;;;;;5050621;28;20225;-83
2023/10/07 13:37:56;;;;;;;4.72;2.50;;;;;;;;;;5053357;28;20321;-80
2023/10/07 13:40:24;;;;;;;4.43;2.67;;;;;;;;;;5059692;28;20238;-80
2023/10/07 13:42:51;;;;;;;3.25;2.15;;;;;;;;;;5059897;28;20226;-80
2023/10/07 13:45:21;;;;;;;3.78;2.40;;;;;;;;;;5058606;28;20226;-80
2023/10/07 13:47:49;;;;;;;4.43;3.00;;;;;;;;;;5050772;28;20287;-80
2023/10/07 13:50:17;;;;;;;3.70;2.72;;;;;;;;;;5051151;28;20843;-79
2023/10/07 13:52:51;;;;;;;3.75;2.55;;;;;;;;;;5051636;28;20234;-85
2023/10/07 13:55:33;;;;;;;5.32;2.67;;;;;;;;;;5046788;28;20241;-84
2023/10/07 13:58:00;;;;;;;4.90;2.75;;;;;;;;;;5044403;28;20366;-82
2023/10/07 14:00:35;;;;;;;5.10;3.00;;;;;;;;;;5050303;28;20720;-82
2023/10/07 14:03:05;;;;;;;3.83;2.72;;;;;;;;;;5050960;28;20212;-82
2023/10/07 14:05:36;;;;;;;6.45;2.75;;;;;;;;;;5050803;28;20251;-82
2023/10/07 14:08:10;;;;;;;6.22;2.58;;;;;;;;;;5051268;28;20228;-83
2023/10/07 14:10:38;;;;;;;4.72;2.60;;;;;;;;;;5050932;28;20230;-80
2023/10/07 14:13:05;;;;;;;5.65;2.75;;;;;;;;;;5050568;28;20288;-81
2023/10/07 14:15:35;;;;;;;6.03;2.88;;;;;;;;;;5050632;28;20229;-80
2023/10/07 14:18:02;;;;;;;4.80;2.80;;;;;;;;;;5051161;28;20651;-80
2023/10/07 14:20:31;;;;;;;3.97;2.80;;;;;;;;;;5050106;28;20240;-80
2023/10/07 14:22:59;;;;;;;3.65;2.17;;;;;;;;;;5052626;28;20569;-81
2023/10/07 14:25:26;;;;;;;3.65;2.58;;;;;;;;;;5053927;28;20233;-81
2023/10/07 14:27:54;;;;;;;4.65;2.45;;;;;;;;;;5054466;28;20280;-80
2023/10/07 14:30:22;;;;;;;3.35;2.40;;;;;;;;;;5054250;28;20226;-80
2023/10/07 14:32:51;;;;;;;3.10;2.28;;;;;;;;;;5046098;28;20232;-80
2023/10/07 14:35:20;;;;;;;4.15;2.70;;;;;;;;;;5054219;28;20237;-80
2023/10/07 14:37:47;;;;;;;4.43;2.35;;;;;;;;;;5054087;28;20240;-80
2023/10/07 14:40:18;;;;;;;3.78;2.47;;;;;;;;;;5054074;28;20234;-80
2023/10/07 14:42:46;;;;;;;4.18;2.38;;;;;;;;;;5054157;28;20206;-80
2023/10/07 14:45:13;;;;;;;3.10;2.33;;;;;;;;;;5053699;28;20287;-81
2023/10/07 14:47:40;;;;;;;4.07;2.22;;;;;;;;;;5054136;28;20234;-80
2023/10/07 14:50:11;;;;;;;3.40;2.35;;;;;;;;;;5054097;28;20241;-80
2023/10/07 14:52:38;;;;;;;3.72;2.50;;;;;;;;;;5054021;28;20227;-81
2023/10/07 14:55:06;;;;;;;3.40;2.15;;;;;;;;;;5054089;28;20236;-85
2023/10/07 14:57:34;;;;;;;3.30;2.10;;;;;;;;;;5054116;28;20285;-83
2023/10/07 15:00:01;;;;;;;4.38;2.85;;;;;;;;;;5047791;28;20718;-85
2023/10/07 15:02:30;;;;;;;6.30;2.88;;;;;;;;;;5054107;28;20206;-85
2023/10/07 15:04:57;;;;;;;2.90;2.20;;;;;;;;;;5052967;28;20617;-85
2023/10/07 15:07:26;;;;;;;4.68;2.65;;;;;;;;;;5054228;28;20258;-85
2023/10/07 15:09:55;;;;;;;2.60;2.38;;;;;;;;;;5052408;28;20225;-84